createdAt,value
2018-01-14T00:00:20.506Z,81.15
2018-01-14T00:02:47.978Z,81.25
2018-01-14T00:05:15.430Z,81.17
2018-01-14T00:07:42.935Z,81.76
2018-01-14T00:10:10.395Z,81.23
2018-01-14T00:12:37.848Z,81.30
2018-01-14T00:15:05.409Z,81.49
2018-01-14T00:17:32.862Z,81.46
2018-01-14T00:20:00.335Z,81.68
2018-01-14T00:22:27.786Z,81.36
2018-01-14T00:24:55.255Z,81.61
2018-01-14T00:27:22.740Z,81.72
2018-01-14T00:29:50.206Z,81.92
2018-01-14T00:32:17.655Z,81.62
2018-01-14T00:34:45.124Z,81.42
2018-01-14T00:37:12.571Z,81.71
2018-01-14T00:39:40.157Z,81.41
2018-01-14T00:42:07.615Z,81.67
2018-01-14T00:44:35.095Z,81.57
2018-01-14T00:47:02.613Z,81.15
2018-01-14T00:49:30.107Z,81.34
2018-01-14T00:51:57.579Z,81.13
2018-01-14T00:54:25.031Z,81.59
2018-01-14T00:56:52.500Z,81.44
2018-01-14T00:59:20.033Z,81.03
2018-01-14T01:01:47.499Z,81.49
2018-01-14T01:04:15.071Z,81.48
2018-01-14T01:06:42.540Z,81.31
2018-01-14T01:09:09.986Z,81.41
2018-01-14T01:11:37.450Z,81.06
2018-01-14T01:14:04.903Z,81.43
2018-01-14T01:16:32.511Z,81.06
2018-01-14T01:19:00.005Z,81.19
2018-01-14T01:21:27.477Z,81.03
2018-01-14T01:23:55.008Z,81.48
2018-01-14T01:26:22.454Z,81.34
2018-01-14T01:28:49.925Z,81.52
2018-01-14T01:31:17.397Z,81.23
2018-01-14T01:33:44.866Z,81.60
2018-01-14T01:36:12.315Z,81.12
2018-01-14T01:38:39.848Z,81.12
2018-01-14T01:41:08.175Z,81.20
2018-01-14T01:43:35.667Z,81.33
2018-01-14T01:46:03.120Z,81.14
2018-01-14T01:48:30.588Z,80.91
2018-01-14T01:50:58.103Z,81.76
2018-01-14T01:53:25.721Z,81.82
2018-01-14T01:55:53.173Z,81.67
2018-01-14T01:58:20.700Z,81.76
2018-01-14T02:00:48.239Z,81.65
2018-01-14T02:03:15.695Z,82.16
2018-01-14T02:05:43.166Z,81.94
2018-01-14T02:08:10.625Z,81.98
2018-01-14T02:10:38.095Z,82.15
2018-01-14T02:13:05.550Z,82.05
2018-01-14T02:15:33.019Z,82.30
2018-01-14T02:18:00.535Z,82.47
2018-01-14T02:20:28.010Z,82.30
2018-01-14T02:22:55.446Z,82.29
2018-01-14T02:25:22.914Z,82.41
2018-01-14T02:27:50.412Z,82.34
2018-01-14T02:30:17.922Z,82.36
2018-01-14T02:32:45.376Z,82.31
2018-01-14T02:35:12.812Z,82.38
2018-01-14T02:37:40.391Z,82.65
2018-01-14T02:40:07.838Z,82.72
2018-01-14T02:42:35.410Z,82.61
2018-01-14T02:45:02.855Z,82.82
2018-01-14T02:47:30.330Z,82.85
2018-01-14T02:49:57.786Z,82.16
2018-01-14T02:52:25.253Z,82.36
2018-01-14T02:54:52.704Z,82.58
2018-01-14T02:57:20.179Z,82.44
2018-01-14T02:59:47.631Z,82.27
2018-01-14T03:02:15.094Z,82.07
2018-01-14T03:04:42.545Z,82.25
2018-01-14T03:07:10.009Z,82.43
2018-01-14T03:09:37.463Z,81.86
2018-01-14T03:12:04.933Z,82.31
2018-01-14T03:14:32.443Z,82.29
2018-01-14T03:16:59.890Z,82.04
2018-01-14T03:19:27.345Z,81.81
2018-01-14T03:21:54.776Z,81.45
2018-01-14T03:24:22.247Z,81.65
2018-01-14T03:26:49.694Z,81.59
2018-01-14T03:29:17.156Z,81.15
2018-01-14T03:31:44.588Z,81.10
2018-01-14T03:34:12.063Z,81.01
2018-01-14T03:36:39.551Z,81.40
2018-01-14T03:39:07.019Z,81.63
2018-01-14T03:41:34.518Z,81.19
2018-01-14T03:44:01.994Z,81.02
2018-01-14T03:46:29.885Z,81.10
2018-01-14T03:48:57.366Z,81.26
2018-01-14T03:51:24.817Z,81.48
2018-01-14T03:53:52.271Z,80.79
2018-01-14T03:56:19.741Z,80.93
2018-01-14T03:58:47.185Z,80.64
2018-01-14T04:01:14.648Z,80.78
2018-01-14T04:03:42.120Z,81.05
2018-01-14T04:06:09.607Z,80.74
2018-01-14T04:08:37.099Z,81.12
2018-01-14T04:11:04.566Z,80.84
2018-01-14T04:13:32.079Z,80.84
2018-01-14T04:15:59.552Z,81.41
2018-01-14T04:18:26.997Z,81.42
2018-01-14T04:20:54.467Z,81.64
2018-01-14T04:23:21.950Z,81.73
2018-01-14T04:25:49.504Z,81.39
2018-01-14T04:28:16.945Z,81.88
2018-01-14T04:30:44.412Z,81.95
2018-01-14T04:33:11.858Z,81.61
2018-01-14T04:35:39.378Z,81.92
2018-01-14T04:38:06.829Z,81.79
2018-01-14T04:40:34.311Z,81.64
2018-01-14T04:43:01.758Z,82.01
2018-01-14T04:45:29.210Z,81.96
2018-01-14T04:47:56.678Z,81.89
2018-01-14T04:50:24.120Z,82.30
2018-01-14T04:52:51.584Z,82.51
2018-01-14T04:55:19.095Z,82.39
2018-01-14T04:57:46.620Z,82.45
2018-01-14T05:00:14.082Z,82.36
2018-01-14T05:02:41.550Z,82.37
2018-01-14T05:05:09.106Z,82.00
2018-01-14T05:07:36.578Z,82.54
2018-01-14T05:10:04.035Z,82.43
2018-01-14T05:12:31.542Z,82.22
2018-01-14T05:14:58.980Z,82.14
2018-01-14T05:17:26.421Z,82.50
2018-01-14T05:19:53.891Z,82.45
2018-01-14T05:22:21.339Z,82.57
2018-01-14T05:24:48.848Z,82.11
2018-01-14T05:27:16.308Z,82.15
2018-01-14T05:29:43.779Z,82.47
2018-01-14T05:32:11.345Z,82.36
2018-01-14T05:34:38.822Z,82.29
2018-01-14T05:37:06.266Z,82.11
2018-01-14T05:39:33.735Z,82.01
2018-01-14T05:42:01.186Z,82.27
2018-01-14T05:44:28.726Z,82.23
2018-01-14T05:46:56.175Z,82.16
2018-01-14T05:49:23.646Z,82.12
2018-01-14T05:51:51.098Z,82.08
2018-01-14T05:54:18.766Z,82.03
2018-01-14T05:56:46.300Z,82.29
2018-01-14T05:59:13.751Z,82.30
2018-01-14T06:01:41.253Z,82.39
2018-01-14T06:04:08.782Z,82.38
2018-01-14T06:06:36.252Z,82.38
2018-01-14T06:09:03.728Z,82.37
2018-01-14T06:11:31.204Z,82.62
2018-01-14T06:13:58.702Z,82.61
2018-01-14T06:16:26.188Z,82.67
2018-01-14T06:18:53.641Z,82.36
2018-01-14T06:21:21.115Z,82.67
2018-01-14T06:23:48.632Z,82.37
2018-01-14T06:26:16.104Z,82.30
2018-01-14T06:28:43.554Z,82.66
2018-01-14T06:31:11.037Z,82.60
2018-01-14T06:33:38.518Z,82.59
2018-01-14T06:36:06.026Z,82.43
2018-01-14T06:38:33.476Z,82.49
2018-01-14T06:41:00.940Z,82.57
2018-01-14T06:43:28.406Z,82.98
2018-01-14T06:45:55.866Z,82.89
2018-01-14T06:48:23.324Z,82.63
2018-01-14T06:50:50.787Z,82.90
2018-01-14T06:53:18.250Z,82.92
2018-01-14T06:55:45.711Z,82.96
2018-01-14T06:58:13.187Z,82.83
2018-01-14T07:00:40.692Z,82.72
2018-01-14T07:03:08.144Z,83.08
2018-01-14T07:05:35.608Z,82.87
2018-01-14T07:08:03.075Z,83.00
2018-01-14T07:10:30.539Z,82.89
2018-01-14T07:12:58.078Z,82.91
2018-01-14T07:15:25.529Z,83.15
2018-01-14T07:17:52.999Z,82.90
2018-01-14T07:20:20.454Z,82.65
2018-01-14T07:22:48.262Z,83.00
2018-01-14T07:25:15.760Z,82.88
2018-01-14T07:27:43.216Z,83.37
2018-01-14T07:30:10.687Z,83.31
2018-01-14T07:32:38.138Z,83.35
2018-01-14T07:35:05.750Z,82.60
2018-01-14T07:37:33.199Z,82.72
2018-01-14T07:40:00.765Z,82.90
2018-01-14T07:42:28.211Z,83.11
2018-01-14T07:44:55.679Z,83.09
2018-01-14T07:47:23.120Z,83.23
2018-01-14T07:49:50.588Z,83.41
2018-01-14T07:52:18.041Z,83.11
2018-01-14T07:54:45.607Z,82.93
2018-01-14T07:57:13.895Z,83.01
2018-01-14T07:59:41.388Z,83.22
2018-01-14T08:02:08.848Z,83.29
2018-01-14T08:04:36.315Z,83.43
2018-01-14T08:07:03.804Z,83.31
2018-01-14T08:09:31.251Z,83.19
2018-01-14T08:11:58.738Z,83.20
2018-01-14T08:14:26.203Z,83.12
2018-01-14T08:16:53.793Z,83.13
2018-01-14T08:19:21.255Z,83.32
2018-01-14T08:21:48.725Z,83.46
2018-01-14T08:24:16.228Z,83.24
2018-01-14T08:26:43.698Z,83.61
2018-01-14T08:29:11.158Z,83.50
2018-01-14T08:31:38.613Z,83.78
2018-01-14T08:34:06.062Z,83.28
2018-01-14T08:36:33.527Z,83.61
2018-01-14T08:39:00.969Z,83.44
2018-01-14T08:41:28.454Z,83.49
2018-01-14T08:43:55.907Z,83.41
2018-01-14T08:46:23.370Z,83.55
2018-01-14T08:48:50.842Z,83.57
2018-01-14T08:51:18.300Z,83.75
2018-01-14T08:53:45.778Z,83.44
2018-01-14T08:56:13.230Z,83.78
2018-01-14T08:58:40.707Z,83.22
2018-01-14T09:01:08.171Z,83.53
2018-01-14T09:03:36.779Z,83.49
2018-01-14T09:06:04.234Z,83.20
2018-01-14T09:08:31.963Z,82.84
2018-01-14T09:10:59.434Z,83.13
2018-01-14T09:13:26.921Z,83.23
2018-01-14T09:15:54.366Z,82.80
2018-01-14T09:18:21.838Z,82.93
2018-01-14T09:20:49.298Z,82.50
2018-01-14T09:23:16.782Z,82.46
2018-01-14T09:25:44.247Z,82.65
2018-01-14T09:28:11.741Z,82.61
2018-01-14T09:30:50.854Z,82.79
2018-01-14T09:33:18.332Z,82.35
2018-01-14T09:35:46.721Z,82.31
2018-01-14T09:38:14.192Z,81.78
2018-01-14T09:40:41.658Z,81.79
2018-01-14T09:43:09.143Z,81.89
2018-01-14T09:45:36.622Z,82.18
2018-01-14T09:48:04.061Z,82.08
2018-01-14T09:50:31.531Z,82.06
2018-01-14T09:52:58.974Z,81.93
2018-01-14T09:55:26.424Z,81.54
2018-01-14T09:57:53.891Z,81.49
2018-01-14T10:00:21.359Z,81.61
2018-01-14T10:02:48.818Z,81.11
2018-01-14T10:05:16.311Z,81.00
2018-01-14T10:07:43.786Z,81.43
2018-01-14T10:10:11.254Z,80.91
2018-01-14T10:12:38.710Z,80.53
2018-01-14T10:15:06.191Z,80.38
2018-01-14T10:17:33.701Z,80.63
2018-01-14T10:20:01.166Z,80.15
2018-01-14T10:22:28.618Z,79.97
2018-01-14T10:24:56.098Z,80.02
2018-01-14T10:27:23.573Z,79.77
2018-01-14T10:29:51.081Z,79.86
2018-01-14T10:32:18.554Z,79.17
2018-01-14T10:34:46.003Z,79.28
2018-01-14T10:37:13.473Z,78.87
2018-01-14T10:39:40.949Z,78.81
2018-01-14T10:42:08.425Z,78.49
2018-01-14T10:44:35.871Z,78.57
2018-01-14T10:47:03.380Z,79.26
2018-01-14T10:49:30.826Z,79.16
2018-01-14T10:51:58.274Z,78.77
2018-01-14T10:54:25.783Z,78.77
2018-01-14T10:56:53.311Z,79.07
2018-01-14T10:59:20.784Z,78.67
2018-01-14T11:01:48.235Z,78.95
2018-01-14T11:04:15.733Z,78.52
2018-01-14T11:06:43.187Z,78.28
2018-01-14T11:09:12.036Z,78.52
2018-01-14T11:11:38.113Z,78.12
2018-01-14T11:14:05.588Z,78.12
2018-01-14T11:16:33.040Z,78.29
2018-01-14T11:19:00.523Z,78.37
2018-01-14T11:21:27.974Z,78.03
2018-01-14T11:23:55.426Z,78.00
2018-01-14T11:26:22.890Z,77.54
2018-01-14T11:28:53.281Z,77.56
2018-01-14T11:31:20.758Z,77.84
2018-01-14T11:33:48.248Z,77.34
2018-01-14T11:36:15.721Z,77.48
2018-01-14T11:38:43.174Z,77.27
2018-01-14T11:41:10.648Z,77.36
2018-01-14T11:43:38.104Z,77.34
2018-01-14T11:46:05.560Z,77.03
2018-01-14T11:48:33.014Z,77.18
2018-01-14T11:51:00.491Z,77.09
2018-01-14T11:53:27.980Z,77.27
2018-01-14T11:55:55.443Z,77.22
2018-01-14T11:58:22.894Z,77.04
2018-01-14T12:00:50.367Z,76.28
2018-01-14T12:03:17.820Z,76.46
2018-01-14T12:05:45.271Z,76.82
2018-01-14T12:08:12.769Z,76.61
2018-01-14T12:10:40.268Z,76.07
2018-01-14T12:13:07.738Z,76.29
2018-01-14T12:15:35.315Z,76.42
2018-01-14T12:18:02.786Z,76.31
2018-01-14T12:20:30.318Z,76.08
2018-01-14T12:22:57.772Z,76.32
2018-01-14T12:25:25.227Z,76.04
2018-01-14T12:27:52.724Z,76.04
2018-01-14T12:30:20.178Z,75.93
2018-01-14T12:32:59.562Z,75.61
2018-01-14T12:35:27.006Z,75.39
2018-01-14T12:37:54.482Z,74.91
2018-01-14T12:40:21.924Z,74.94
2018-01-14T12:42:49.399Z,75.05
2018-01-14T12:45:16.866Z,75.36
2018-01-14T12:47:44.306Z,75.56
2018-01-14T12:50:11.763Z,75.38
2018-01-14T12:52:39.215Z,75.12
2018-01-14T12:55:06.690Z,75.20
2018-01-14T12:57:34.250Z,74.50
2018-01-14T13:00:01.727Z,74.24
2018-01-14T13:02:29.182Z,74.38
2018-01-14T13:04:56.676Z,74.26
2018-01-14T13:07:24.121Z,74.45
2018-01-14T13:09:51.586Z,74.32
2018-01-14T13:12:19.072Z,74.44
2018-01-14T13:14:46.550Z,74.86
2018-01-14T13:17:14.008Z,74.14
2018-01-14T13:19:41.464Z,73.17
2018-01-14T13:22:08.942Z,73.51
2018-01-14T13:24:36.471Z,73.50
2018-01-14T13:27:03.938Z,73.39
2018-01-14T13:29:31.483Z,72.46
2018-01-14T13:31:58.950Z,72.48
2018-01-14T13:34:26.460Z,71.10
2018-01-14T13:36:53.880Z,71.55
2018-01-14T13:39:21.317Z,70.78
2018-01-14T13:41:48.781Z,70.51
2018-01-14T13:44:16.231Z,69.63
2018-01-14T13:46:43.744Z,69.79
2018-01-14T13:49:11.194Z,70.14
2018-01-14T13:51:38.655Z,70.32
2018-01-14T13:54:06.105Z,69.26
2018-01-14T13:56:33.559Z,70.21
2018-01-14T13:59:01.036Z,70.25
2018-01-14T14:01:28.476Z,70.34
2018-01-14T14:03:55.959Z,70.50
2018-01-14T14:06:23.411Z,69.25
2018-01-14T14:08:50.865Z,70.21
2018-01-14T14:11:18.326Z,70.09
2018-01-14T14:13:45.831Z,70.41
2018-01-14T14:16:13.286Z,71.25
2018-01-14T14:18:40.815Z,71.46
2018-01-14T14:21:08.267Z,71.92
2018-01-14T14:23:35.838Z,71.17
2018-01-14T14:26:03.287Z,71.41
2018-01-14T14:28:30.772Z,71.37
2018-01-14T14:30:58.213Z,71.30
2018-01-14T14:33:25.683Z,71.27
2018-01-14T14:35:53.149Z,70.87
2018-01-14T14:38:20.633Z,70.65
2018-01-14T14:40:48.135Z,71.19
2018-01-14T14:43:15.698Z,70.83
2018-01-14T14:45:43.145Z,70.81
2018-01-14T14:48:10.622Z,70.85
2018-01-14T14:50:38.080Z,70.60
2018-01-14T14:53:05.546Z,70.96
2018-01-14T14:55:33.020Z,70.57
2018-01-14T14:58:00.470Z,70.50
2018-01-14T15:00:27.943Z,70.04
2018-01-14T15:02:55.428Z,70.04
2018-01-14T15:05:22.864Z,70.05
2018-01-14T15:07:50.314Z,70.18
2018-01-14T15:10:17.786Z,70.26
2018-01-14T15:12:45.236Z,70.89
2018-01-14T15:15:12.721Z,71.40
2018-01-14T15:17:40.171Z,71.38
2018-01-14T15:20:07.628Z,71.65
2018-01-14T15:22:35.372Z,71.69
2018-01-14T15:25:02.843Z,72.39
2018-01-14T15:27:30.324Z,72.59
2018-01-14T15:29:57.798Z,72.57
2018-01-14T15:32:25.255Z,73.48
2018-01-14T15:34:53.248Z,73.90
2018-01-14T15:37:21.115Z,74.07
2018-01-14T15:39:48.766Z,74.60
2018-01-14T15:42:16.283Z,74.87
2018-01-14T15:44:43.748Z,74.78
2018-01-14T15:47:11.225Z,75.04
2018-01-14T15:49:38.680Z,75.37
2018-01-14T15:52:06.138Z,74.82
2018-01-14T15:54:33.598Z,75.14
2018-01-14T15:57:01.060Z,75.81
2018-01-14T15:59:28.511Z,76.15
2018-01-14T16:01:55.994Z,75.75
2018-01-14T16:04:23.437Z,75.82
2018-01-14T16:06:50.911Z,75.63
2018-01-14T16:09:18.368Z,75.48
2018-01-14T16:11:45.851Z,75.54
2018-01-14T16:14:13.293Z,75.62
2018-01-14T16:16:40.775Z,75.38
2018-01-14T16:19:08.299Z,75.93
2018-01-14T16:21:35.780Z,76.04
2018-01-14T16:24:03.247Z,76.17
2018-01-14T16:26:30.731Z,75.61
2018-01-14T16:28:58.196Z,76.00
2018-01-14T16:31:25.691Z,75.78
2018-01-14T16:33:53.203Z,75.75
2018-01-14T16:36:20.652Z,75.21
2018-01-14T16:38:48.150Z,75.38
2018-01-14T16:41:15.648Z,74.86
2018-01-14T16:43:43.143Z,74.35
2018-01-14T16:46:10.609Z,73.77
2018-01-14T16:48:38.091Z,73.59
2018-01-14T16:51:05.588Z,73.55
2018-01-14T16:53:33.074Z,73.54
2018-01-14T16:56:00.549Z,72.97
2018-01-14T16:58:28.029Z,72.81
2018-01-14T17:00:55.580Z,72.93
2018-01-14T17:03:23.187Z,72.87
2018-01-14T17:05:50.883Z,73.03
2018-01-14T17:08:18.550Z,73.54
2018-01-14T17:10:46.036Z,73.51
2018-01-14T17:13:13.486Z,72.48
2018-01-14T17:15:40.971Z,71.90
2018-01-14T17:18:08.452Z,73.22
2018-01-14T17:20:35.925Z,72.25
2018-01-14T17:23:03.403Z,72.42
2018-01-14T17:25:30.903Z,72.91
2018-01-14T17:27:58.438Z,72.93
2018-01-14T17:30:25.934Z,73.98
2018-01-14T17:32:53.394Z,74.81
2018-01-14T17:35:21.070Z,76.38
2018-01-14T17:37:48.581Z,75.72
2018-01-14T17:40:16.015Z,75.94
2018-01-14T17:42:43.466Z,76.18
2018-01-14T17:45:10.929Z,77.24
2018-01-14T17:47:38.382Z,77.47
2018-01-14T17:50:05.854Z,77.95
2018-01-14T17:52:33.606Z,78.41
2018-01-14T17:55:01.070Z,78.73
2018-01-14T17:57:28.519Z,78.47
2018-01-14T17:59:55.961Z,78.86
2018-01-14T18:02:23.426Z,78.94
2018-01-14T18:04:50.912Z,79.05
2018-01-14T18:07:18.391Z,79.32
2018-01-14T18:09:45.828Z,79.57
2018-01-14T18:12:13.306Z,80.03
2018-01-14T18:14:40.774Z,80.01
2018-01-14T18:20:05.238Z,80.19
2018-01-14T18:22:32.781Z,80.14
2018-01-14T18:25:00.233Z,79.78
2018-01-14T18:27:27.689Z,80.90
2018-01-14T18:35:40.331Z,79.84
2018-01-14T18:38:07.805Z,80.03
2018-01-14T18:40:35.251Z,80.36
2018-01-14T18:43:02.819Z,80.87
2018-01-14T18:45:57.247Z,81.13
2018-01-14T18:48:24.723Z,81.20
2018-01-14T18:50:52.177Z,81.25
2018-01-14T18:53:19.659Z,81.06
2018-01-14T18:55:47.134Z,81.00
2018-01-14T18:58:14.591Z,81.05
2018-01-14T19:00:42.283Z,81.64
2018-01-14T19:03:09.730Z,82.43
2018-01-14T19:05:37.186Z,82.29
2018-01-14T19:08:04.627Z,82.22
2018-01-14T19:10:32.214Z,82.46
2018-01-14T19:12:59.747Z,82.47
2018-01-14T19:15:27.236Z,82.02
2018-01-14T19:17:54.711Z,82.01
2018-01-14T19:20:22.190Z,81.81
2018-01-14T19:22:49.640Z,81.80
2018-01-14T19:25:17.098Z,82.17
2018-01-14T19:27:44.566Z,82.15
2018-01-14T19:30:12.026Z,82.66
2018-01-14T19:32:39.517Z,82.79
2018-01-14T19:35:06.995Z,83.22
2018-01-14T19:37:34.497Z,83.27
2018-01-14T19:40:02.130Z,83.40
2018-01-14T19:42:29.845Z,82.99
2018-01-14T19:44:57.367Z,83.18
2018-01-14T19:47:24.846Z,83.54
2018-01-14T19:49:52.548Z,83.26
2018-01-14T19:52:20.329Z,83.67
2018-01-14T19:54:47.833Z,83.58
2018-01-14T19:57:15.628Z,83.86
2018-01-14T19:59:43.091Z,83.81
2018-01-14T20:02:10.620Z,84.71
2018-01-14T20:04:38.098Z,84.62
2018-01-14T20:07:05.648Z,84.91
2018-01-14T20:09:33.155Z,85.02
2018-01-14T20:12:00.653Z,84.79
2018-01-14T20:14:28.118Z,84.86
2018-01-14T20:16:55.567Z,84.62
2018-01-14T20:19:23.042Z,85.08
2018-01-14T20:21:50.582Z,85.27
2018-01-14T20:24:18.054Z,85.11
2018-01-14T20:26:45.519Z,84.66
2018-01-14T20:29:13.003Z,84.66
2018-01-14T20:31:40.457Z,84.16
2018-01-14T20:34:07.920Z,84.81
2018-01-14T20:36:35.369Z,84.71
2018-01-14T20:39:02.859Z,84.54
2018-01-14T20:41:30.328Z,85.10
2018-01-14T20:43:57.790Z,85.06
2018-01-14T20:46:25.268Z,84.91
2018-01-14T20:48:52.709Z,85.12
2018-01-14T20:51:20.170Z,84.76
2018-01-14T20:53:47.615Z,84.88
2018-01-14T20:56:15.619Z,84.68
2018-01-14T20:58:43.076Z,85.26
2018-01-14T21:01:10.571Z,85.98
2018-01-14T21:03:38.027Z,85.04
2018-01-14T21:06:05.494Z,85.08
2018-01-14T21:08:32.941Z,85.15
2018-01-14T21:11:00.413Z,85.10
2018-01-14T21:13:27.911Z,85.46
2018-01-14T21:15:55.400Z,85.37
2018-01-14T21:18:22.863Z,85.27
2018-01-14T21:20:50.358Z,85.46
2018-01-14T21:23:17.801Z,85.07
2018-01-14T21:25:45.295Z,85.12
2018-01-14T21:28:12.881Z,85.76
2018-01-14T21:30:40.354Z,85.56
2018-01-14T21:33:07.827Z,85.34
2018-01-14T21:35:35.387Z,85.33
2018-01-14T21:38:02.839Z,85.81
2018-01-14T21:40:30.311Z,85.99
2018-01-14T21:42:57.806Z,85.46
2018-01-14T21:45:25.265Z,86.20
2018-01-14T21:47:52.736Z,86.48
2018-01-14T21:50:20.270Z,86.07
2018-01-14T21:52:47.794Z,85.75
2018-01-14T21:55:15.266Z,85.64
2018-01-14T21:57:42.738Z,85.68
2018-01-14T22:00:10.223Z,85.38
2018-01-14T22:02:37.793Z,85.56
2018-01-14T22:05:05.267Z,86.06
2018-01-14T22:07:32.739Z,86.25
2018-01-14T22:10:00.304Z,86.89
2018-01-14T22:12:28.059Z,86.04
2018-01-14T22:14:55.527Z,86.60
2018-01-14T22:17:23.011Z,86.77
2018-01-14T22:19:50.547Z,86.17
2018-01-14T22:22:18.207Z,86.46
2018-01-14T22:24:45.670Z,86.54
2018-01-14T22:27:13.121Z,86.37
2018-01-14T22:29:40.602Z,86.00
2018-01-14T22:32:08.054Z,86.46
2018-01-14T22:34:35.534Z,86.74
2018-01-14T22:37:03.006Z,86.82
2018-01-14T22:39:30.496Z,86.60
2018-01-14T22:41:58.051Z,86.25
2018-01-14T22:44:25.601Z,85.33
2018-01-14T22:46:53.041Z,86.17
2018-01-14T22:49:20.523Z,86.26
2018-01-14T22:51:47.978Z,86.19
2018-01-14T22:54:15.535Z,85.98
2018-01-14T22:56:42.979Z,86.35
2018-01-14T22:59:10.474Z,86.63
2018-01-14T23:01:37.921Z,86.62
2018-01-14T23:04:05.398Z,86.69
2018-01-14T23:06:32.947Z,86.36
2018-01-14T23:09:00.407Z,86.87
2018-01-14T23:11:27.883Z,86.38
2018-01-14T23:13:55.337Z,86.30
2018-01-14T23:16:22.827Z,86.27
2018-01-14T23:18:50.279Z,86.30
2018-01-14T23:21:17.763Z,86.18
2018-01-14T23:23:45.327Z,86.19
2018-01-14T23:26:12.827Z,86.38
2018-01-14T23:28:40.269Z,86.65
2018-01-14T23:31:07.747Z,85.96
2018-01-14T23:33:35.206Z,86.63
2018-01-14T23:36:02.678Z,85.87
2018-01-14T23:38:30.138Z,86.37
2018-01-14T23:40:57.586Z,86.19
2018-01-14T23:43:25.050Z,86.49
2018-01-14T23:45:52.543Z,86.23
2018-01-14T23:48:20.012Z,86.24
2018-01-14T23:50:47.462Z,86.28
2018-01-14T23:53:14.936Z,85.85
2018-01-14T23:55:42.384Z,85.81
2018-01-14T23:58:09.854Z,85.83
